createdAt,value
2017-12-26T00:00:02.644Z,6.66
2017-12-26T00:01:11.474Z,6.71
2017-12-26T00:02:20.302Z,6.69
2017-12-26T00:03:29.129Z,6.61
2017-12-26T00:04:37.955Z,6.62
2017-12-26T00:05:46.785Z,6.69
2017-12-26T00:06:55.886Z,6.64
2017-12-26T00:08:04.712Z,6.59
2017-12-26T00:09:13.541Z,6.62
2017-12-26T00:10:22.369Z,6.61
2017-12-26T00:11:31.196Z,6.59
2017-12-26T00:12:40.023Z,6.66
2017-12-26T00:13:48.948Z,6.62
2017-12-26T00:14:58.077Z,6.66
2017-12-26T00:16:06.900Z,6.67
2017-12-26T00:17:15.726Z,6.61
2017-12-26T00:18:24.553Z,6.61
2017-12-26T00:19:33.382Z,6.59
2017-12-26T00:20:42.207Z,6.64
2017-12-26T00:21:51.036Z,6.69
2017-12-26T00:23:00.137Z,6.67
2017-12-26T00:24:08.962Z,6.64
2017-12-26T00:25:17.788Z,6.61
2017-12-26T00:26:26.615Z,6.7
2017-12-26T00:27:35.441Z,6.66
2017-12-26T00:28:44.268Z,6.54
2017-12-26T00:29:53.096Z,6.62
2017-12-26T00:31:01.922Z,6.59
2017-12-26T00:32:10.751Z,6.67
2017-12-26T00:33:19.577Z,6.61
2017-12-26T00:34:28.405Z,6.69
2017-12-26T00:35:37.236Z,6.62
2017-12-26T00:36:46.064Z,6.52
2017-12-26T00:37:55.163Z,6.52
2017-12-26T00:39:04.264Z,6.62
2017-12-26T00:40:13.367Z,6.59
2017-12-26T00:41:22.195Z,6.66
2017-12-26T00:42:31.574Z,6.61
2017-12-26T00:43:40.399Z,6.64
2017-12-26T00:44:49.229Z,6.61
2017-12-26T00:45:58.055Z,6.66
2017-12-26T00:47:06.881Z,6.61
2017-12-26T00:48:15.709Z,6.62
2017-12-26T00:49:24.814Z,6.49
2017-12-26T00:50:33.645Z,6.51
2017-12-26T00:51:42.742Z,6.55
2017-12-26T00:52:51.568Z,6.66
2017-12-26T00:54:00.393Z,6.66
2017-12-26T00:55:09.220Z,6.64
2017-12-26T00:56:18.048Z,6.62
2017-12-26T00:57:26.876Z,6.64
2017-12-26T00:58:35.700Z,6.62
2017-12-26T00:59:44.526Z,6.56
2017-12-26T01:00:53.354Z,6.49
2017-12-26T01:02:02.183Z,6.49
2017-12-26T01:03:11.291Z,6.64
2017-12-26T01:04:20.390Z,6.52
2017-12-26T01:05:29.218Z,6.54
2017-12-26T01:06:38.044Z,6.49
2017-12-26T01:07:46.871Z,6.56
2017-12-26T01:08:55.701Z,6.59
2017-12-26T01:10:04.530Z,6.61
2017-12-26T01:11:13.356Z,6.56
2017-12-26T01:12:22.186Z,6.49
2017-12-26T01:13:31.010Z,6.55
2017-12-26T01:14:39.837Z,6.52
2017-12-26T01:15:48.666Z,6.64
2017-12-26T01:16:57.493Z,6.58
2017-12-26T01:18:06.594Z,6.58
2017-12-26T01:19:15.419Z,6.55
2017-12-26T01:20:24.522Z,6.51
2017-12-26T01:21:33.348Z,6.55
2017-12-26T01:22:42.174Z,6.52
2017-12-26T01:23:51.100Z,6.49
2017-12-26T01:25:00.202Z,6.48
2017-12-26T01:26:09.028Z,6.55
2017-12-26T01:27:18.138Z,6.58
2017-12-26T01:28:26.966Z,6.62
2017-12-26T01:29:35.793Z,6.64
2017-12-26T01:30:44.619Z,6.64
2017-12-26T01:31:53.446Z,6.55
2017-12-26T01:33:02.273Z,6.49
2017-12-26T01:34:11.102Z,6.51
2017-12-26T01:35:19.926Z,6.54
2017-12-26T01:36:28.754Z,6.51
2017-12-26T01:37:37.582Z,6.49
2017-12-26T01:38:46.417Z,6.52
2017-12-26T01:39:55.514Z,6.54
2017-12-26T01:41:04.392Z,6.48
2017-12-26T01:42:13.216Z,6.51
2017-12-26T01:43:22.317Z,6.61
2017-12-26T01:44:31.143Z,6.52
2017-12-26T01:45:39.969Z,6.51
2017-12-26T01:46:48.946Z,6.54
2017-12-26T01:47:57.773Z,6.48
2017-12-26T01:49:06.600Z,6.54
2017-12-26T01:50:15.426Z,6.66
2017-12-26T01:51:24.254Z,6.54
2017-12-26T01:52:33.079Z,6.52
2017-12-26T01:53:41.913Z,6.49
2017-12-26T01:54:50.951Z,6.44
2017-12-26T01:55:59.776Z,6.49
2017-12-26T01:57:08.606Z,6.37
2017-12-26T01:58:17.433Z,6.44
2017-12-26T01:59:26.260Z,6.52
2017-12-26T02:00:35.085Z,6.44
2017-12-26T02:01:43.913Z,6.4
2017-12-26T02:02:52.741Z,6.38
2017-12-26T02:04:01.567Z,6.38
2017-12-26T02:05:10.393Z,6.43
2017-12-26T02:06:19.219Z,6.38
2017-12-26T02:07:28.046Z,6.44
2017-12-26T02:08:36.875Z,6.46
2017-12-26T02:09:45.700Z,6.41
2017-12-26T02:10:54.532Z,6.44
2017-12-26T02:12:03.637Z,6.37
2017-12-26T02:13:12.461Z,6.43
2017-12-26T02:14:21.288Z,6.43
2017-12-26T02:15:30.116Z,6.38
2017-12-26T02:16:38.946Z,6.38
2017-12-26T02:17:48.049Z,6.41
2017-12-26T02:18:57.150Z,6.3
2017-12-26T02:20:05.975Z,6.28
2017-12-26T02:21:14.801Z,6.3
2017-12-26T02:22:23.628Z,6.34
2017-12-26T02:23:32.455Z,6.34
2017-12-26T02:24:41.282Z,6.28
2017-12-26T02:25:50.108Z,6.31
2017-12-26T02:26:58.941Z,6.31
2017-12-26T02:28:07.769Z,6.31
2017-12-26T02:29:16.595Z,6.22
2017-12-26T02:30:25.423Z,6.31
2017-12-26T02:31:34.253Z,6.33
2017-12-26T02:32:43.081Z,6.3
2017-12-26T02:33:51.917Z,6.31
2017-12-26T02:35:00.743Z,6.31
2017-12-26T02:36:09.571Z,6.28
2017-12-26T02:37:18.395Z,6.25
2017-12-26T02:38:27.221Z,6.33
2017-12-26T02:39:36.047Z,6.31
2017-12-26T02:40:45.148Z,6.28
2017-12-26T02:41:53.976Z,6.36
2017-12-26T02:43:03.077Z,6.3
2017-12-26T02:44:11.904Z,6.31
2017-12-26T02:45:20.735Z,6.34
2017-12-26T02:46:29.558Z,6.3
2017-12-26T02:47:38.657Z,6.37
2017-12-26T02:48:47.759Z,6.33
2017-12-26T02:49:56.638Z,6.25
2017-12-26T02:51:05.743Z,6.27
2017-12-26T02:52:14.570Z,6.21
2017-12-26T02:53:23.397Z,6.18
2017-12-26T02:54:32.506Z,6.25
2017-12-26T02:55:41.335Z,6.12
2017-12-26T02:56:50.162Z,6.17
2017-12-26T02:57:58.991Z,6.33
2017-12-26T02:59:07.816Z,6.15
2017-12-26T03:00:16.641Z,6.09
2017-12-26T03:01:25.467Z,6.14
2017-12-26T03:02:34.294Z,6.12
2017-12-26T03:03:43.402Z,6.09
2017-12-26T03:04:52.226Z,6.04
2017-12-26T03:06:01.051Z,6.04
2017-12-26T03:07:09.878Z,6.04
2017-12-26T03:08:18.707Z,6.12
2017-12-26T03:09:27.535Z,5.96
2017-12-26T03:10:36.635Z,6.08
2017-12-26T03:11:45.460Z,5.99
2017-12-26T03:12:54.285Z,5.96
2017-12-26T03:14:03.111Z,6
2017-12-26T03:15:11.938Z,5.89
2017-12-26T03:16:20.765Z,5.91
2017-12-26T03:17:29.592Z,5.86
2017-12-26T03:18:38.567Z,5.83
2017-12-26T03:19:47.392Z,5.86
2017-12-26T03:20:56.220Z,5.79
2017-12-26T03:22:05.047Z,5.79
2017-12-26T03:23:13.874Z,5.68
2017-12-26T03:24:22.698Z,5.68
2017-12-26T03:25:31.523Z,5.72
2017-12-26T03:26:40.350Z,5.63
2017-12-26T03:27:49.177Z,5.6
2017-12-26T03:28:58.287Z,5.61
2017-12-26T03:30:07.113Z,5.63
2017-12-26T03:31:15.939Z,5.6
2017-12-26T03:32:24.765Z,5.63
2017-12-26T03:33:34.137Z,5.6
2017-12-26T03:34:43.242Z,5.58
2017-12-26T03:35:52.069Z,5.48
2017-12-26T03:37:00.891Z,5.45
2017-12-26T03:38:09.719Z,5.46
2017-12-26T03:39:18.544Z,5.36
2017-12-26T03:40:27.373Z,5.35
2017-12-26T03:41:36.297Z,5.24
2017-12-26T03:42:45.125Z,5.35
2017-12-26T03:43:53.948Z,5.28
2017-12-26T03:45:02.776Z,5.21
2017-12-26T03:46:11.601Z,5.17
2017-12-26T03:47:20.426Z,5.24
2017-12-26T03:48:29.254Z,5.21
2017-12-26T03:49:38.077Z,5.2
2017-12-26T03:50:46.903Z,5.17
2017-12-26T03:51:55.727Z,5.25
2017-12-26T03:53:04.829Z,5.15
2017-12-26T03:54:13.660Z,5.1
2017-12-26T03:55:22.485Z,5.12
2017-12-26T03:56:31.309Z,5.18
2017-12-26T03:57:40.132Z,5.17
2017-12-26T03:58:48.962Z,5.09
2017-12-26T03:59:57.782Z,5.02
2017-12-26T04:01:06.610Z,5.07
2017-12-26T04:02:15.434Z,5.04
2017-12-26T04:03:24.262Z,4.99
2017-12-26T04:04:33.088Z,5.02
2017-12-26T04:05:41.913Z,5.07
2017-12-26T04:06:50.739Z,4.92
2017-12-26T04:07:59.564Z,5.04
2017-12-26T04:09:08.390Z,4.96
2017-12-26T04:10:17.491Z,4.99
2017-12-26T04:11:26.863Z,4.97
2017-12-26T04:12:35.688Z,5
2017-12-26T04:13:44.787Z,4.94
2017-12-26T04:14:53.613Z,4.96
2017-12-26T04:16:02.711Z,4.97
2017-12-26T04:17:11.540Z,4.96
2017-12-26T04:18:20.365Z,4.85
2017-12-26T04:19:29.188Z,5.02
2017-12-26T04:20:38.011Z,4.91
2017-12-26T04:21:46.834Z,4.92
2017-12-26T04:22:55.659Z,4.75
2017-12-26T04:24:04.485Z,4.77
2017-12-26T04:25:13.310Z,4.78
2017-12-26T04:26:22.136Z,4.88
2017-12-26T04:27:30.959Z,4.77
2017-12-26T04:28:39.786Z,4.85
2017-12-26T04:29:48.613Z,4.72
2017-12-26T04:30:57.436Z,4.75
2017-12-26T04:32:06.261Z,4.73
2017-12-26T04:33:15.086Z,4.75
2017-12-26T04:34:23.910Z,4.72
2017-12-26T04:35:32.736Z,4.67
2017-12-26T04:36:41.561Z,4.67
2017-12-26T04:37:50.385Z,4.72
2017-12-26T04:38:59.211Z,4.69
2017-12-26T04:40:08.312Z,4.65
2017-12-26T04:41:17.138Z,4.67
2017-12-26T04:42:25.963Z,4.66
2017-12-26T04:43:34.785Z,4.6
2017-12-26T04:44:43.610Z,4.7
2017-12-26T04:45:52.435Z,4.58
2017-12-26T04:47:01.261Z,4.6
2017-12-26T04:48:10.090Z,4.72
2017-12-26T04:49:19.188Z,4.7
2017-12-26T04:50:28.017Z,4.63
2017-12-26T04:51:36.835Z,4.59
2017-12-26T04:52:45.659Z,4.59
2017-12-26T04:53:54.483Z,4.65
2017-12-26T04:55:03.311Z,4.52
2017-12-26T04:56:12.136Z,4.48
2017-12-26T04:57:20.964Z,4.55
2017-12-26T04:58:30.066Z,4.62
2017-12-26T04:59:38.889Z,4.52
2017-12-26T05:00:47.766Z,4.54
2017-12-26T05:01:56.587Z,4.52
2017-12-26T05:03:05.408Z,4.42
2017-12-26T05:04:14.234Z,4.42
2017-12-26T05:05:23.056Z,4.42
2017-12-26T05:06:31.882Z,4.44
2017-12-26T05:07:41.029Z,4.51
2017-12-26T05:08:49.856Z,4.42
2017-12-26T05:09:58.680Z,4.44
2017-12-26T05:11:07.507Z,4.41
2017-12-26T05:12:16.330Z,4.41
2017-12-26T05:13:25.156Z,4.45
2017-12-26T05:14:33.981Z,4.27
2017-12-26T05:15:42.806Z,4.34
2017-12-26T05:16:51.631Z,4.42
2017-12-26T05:18:00.458Z,4.55
2017-12-26T05:19:09.283Z,4.41
2017-12-26T05:20:18.382Z,4.42
2017-12-26T05:21:27.207Z,4.41
2017-12-26T05:22:36.030Z,4.24
2017-12-26T05:23:44.860Z,4.33
2017-12-26T05:24:53.685Z,4.27
2017-12-26T05:26:02.785Z,4.34
2017-12-26T05:27:11.609Z,4.41
2017-12-26T05:28:20.434Z,4.29
2017-12-26T05:29:29.257Z,4.32
2017-12-26T05:30:38.081Z,4.27
2017-12-26T05:31:47.176Z,4.27
2017-12-26T05:32:55.999Z,4.15
2017-12-26T05:34:04.826Z,4.16
2017-12-26T05:35:13.653Z,4.12
2017-12-26T05:36:22.753Z,4.11
2017-12-26T05:37:31.576Z,4.11
2017-12-26T05:38:40.398Z,4.06
2017-12-26T05:39:49.222Z,4.06
2017-12-26T05:40:58.048Z,4.08
2017-12-26T05:42:06.871Z,4.04
2017-12-26T05:43:15.696Z,4.06
2017-12-26T05:44:24.797Z,4.06
2017-12-26T05:45:33.623Z,3.97
2017-12-26T05:46:42.447Z,4.08
2017-12-26T05:47:51.270Z,4
2017-12-26T05:49:00.095Z,4.04
2017-12-26T05:50:08.917Z,3.97
2017-12-26T05:51:17.744Z,3.98
2017-12-26T05:52:26.567Z,3.97
2017-12-26T05:53:35.392Z,3.94
2017-12-26T05:54:44.216Z,4.06
2017-12-26T05:55:53.312Z,4
2017-12-26T05:57:02.136Z,4.04
2017-12-26T05:58:10.962Z,3.98
2017-12-26T05:59:19.788Z,4
2017-12-26T06:00:28.612Z,4.05
2017-12-26T06:01:37.713Z,3.97
2017-12-26T06:02:46.538Z,4.08
2017-12-26T06:03:55.361Z,4.08
2017-12-26T06:05:04.187Z,4.12
2017-12-26T06:06:13.012Z,4.09
2017-12-26T06:07:21.841Z,4.05
2017-12-26T06:08:30.661Z,3.97
2017-12-26T06:09:39.488Z,4.14
2017-12-26T06:10:48.463Z,4.08
2017-12-26T06:11:57.564Z,4.09
2017-12-26T06:13:06.388Z,4.06
2017-12-26T06:14:15.213Z,4.08
2017-12-26T06:15:24.038Z,4.08
2017-12-26T06:16:32.913Z,4.16
2017-12-26T06:17:41.737Z,4.12
2017-12-26T06:18:50.847Z,4.32
2017-12-26T06:19:59.672Z,4.26
2017-12-26T06:21:08.499Z,4.44
2017-12-26T06:22:17.322Z,4.41
2017-12-26T06:23:26.149Z,4.48
2017-12-26T06:24:34.975Z,4.4
2017-12-26T06:25:43.801Z,4.4
2017-12-26T06:26:52.899Z,4.42
2017-12-26T06:28:01.727Z,4.5
2017-12-26T06:29:10.552Z,4.58
2017-12-26T06:30:19.654Z,4.62
2017-12-26T06:31:28.752Z,4.65
2017-12-26T06:32:37.849Z,4.63
2017-12-26T06:33:46.878Z,4.63
2017-12-26T06:34:55.702Z,4.72
2017-12-26T06:36:04.528Z,4.77
2017-12-26T06:37:13.354Z,4.86
2017-12-26T06:38:22.231Z,4.96
2017-12-26T06:39:31.000Z,4.94
2017-12-26T06:40:39.826Z,5.04
2017-12-26T06:41:48.931Z,5.02
2017-12-26T06:42:58.027Z,5.04
2017-12-26T06:44:06.879Z,5.06
2017-12-26T06:45:15.680Z,5.04
2017-12-26T06:46:24.505Z,5.18
2017-12-26T06:47:33.331Z,5.13
2017-12-26T06:48:42.157Z,5.2
2017-12-26T06:49:50.982Z,5.38
2017-12-26T06:50:59.808Z,5.38
2017-12-26T06:52:08.635Z,5.36
2017-12-26T06:53:17.461Z,5.45
2017-12-26T06:54:26.288Z,5.58
2017-12-26T06:55:35.114Z,5.68
2017-12-26T06:56:43.940Z,5.81
2017-12-26T06:57:52.766Z,5.68
2017-12-26T06:59:01.592Z,5.82
2017-12-26T07:00:10.417Z,5.85
2017-12-26T07:01:19.249Z,5.82
2017-12-26T07:02:28.072Z,5.91
2017-12-26T07:03:37.173Z,5.91
2017-12-26T07:04:45.997Z,5.94
2017-12-26T07:05:54.825Z,6.04
2017-12-26T07:07:03.651Z,6.04
2017-12-26T07:08:12.476Z,6.19
2017-12-26T07:09:21.301Z,6.09
2017-12-26T07:10:30.128Z,6.08
2017-12-26T07:11:38.960Z,6.18
2017-12-26T07:12:48.061Z,6.27
2017-12-26T07:13:57.160Z,6.31
2017-12-26T07:15:05.986Z,6.31
2017-12-26T07:16:14.811Z,6.34
2017-12-26T07:17:23.639Z,6.38
2017-12-26T07:18:32.465Z,6.43
2017-12-26T07:19:41.289Z,6.51
2017-12-26T07:20:50.121Z,6.49
2017-12-26T07:21:58.951Z,6.49
2017-12-26T07:23:07.776Z,6.51
2017-12-26T07:24:16.603Z,6.62
2017-12-26T07:25:25.429Z,6.64
2017-12-26T07:26:34.534Z,6.76
2017-12-26T07:27:43.361Z,6.67
2017-12-26T07:28:52.189Z,6.74
2017-12-26T07:30:01.017Z,6.81
2017-12-26T07:31:09.901Z,6.85
2017-12-26T07:32:18.671Z,6.85
2017-12-26T07:33:27.502Z,6.87
2017-12-26T07:34:36.328Z,6.92
2017-12-26T07:35:45.159Z,6.92
2017-12-26T07:36:53.988Z,6.98
2017-12-26T07:38:02.816Z,7.06
2017-12-26T07:39:11.642Z,7.13
2017-12-26T07:40:20.471Z,7.12
2017-12-26T07:41:29.300Z,7.27
2017-12-26T07:42:38.173Z,7.16
2017-12-26T07:43:47.000Z,7.31
2017-12-26T07:44:55.829Z,7.37
2017-12-26T07:46:04.657Z,7.42
2017-12-26T07:47:13.485Z,7.49
2017-12-26T07:48:22.314Z,7.48
2017-12-26T07:49:31.140Z,7.46
2017-12-26T07:50:39.965Z,7.58
2017-12-26T07:51:48.792Z,7.5
2017-12-26T07:52:57.618Z,7.52
2017-12-26T07:54:06.447Z,7.53
2017-12-26T07:55:15.276Z,7.58
2017-12-26T07:56:24.102Z,7.58
2017-12-26T07:57:32.928Z,7.64
2017-12-26T07:58:41.756Z,7.74
2017-12-26T07:59:50.581Z,7.8
2017-12-26T08:00:59.410Z,7.82
2017-12-26T08:02:08.239Z,7.83
2017-12-26T08:03:17.065Z,7.86
2017-12-26T08:04:25.893Z,7.82
2017-12-26T08:05:34.725Z,7.85
2017-12-26T08:06:43.826Z,7.82
2017-12-26T08:07:52.653Z,7.77
2017-12-26T08:09:01.480Z,7.79
2017-12-26T08:10:10.585Z,7.85
2017-12-26T08:11:19.412Z,7.8
2017-12-26T08:12:28.238Z,7.82
2017-12-26T08:13:37.119Z,7.67
2017-12-26T08:14:45.947Z,7.68
2017-12-26T08:15:54.773Z,7.58
2017-12-26T08:17:03.652Z,7.58
2017-12-26T08:18:12.479Z,7.55
2017-12-26T08:19:21.308Z,7.58
2017-12-26T08:20:30.136Z,7.53
2017-12-26T08:21:38.961Z,7.49
2017-12-26T08:22:47.790Z,7.5
2017-12-26T08:23:56.957Z,7.55
2017-12-26T08:25:05.785Z,7.55
2017-12-26T08:26:14.612Z,7.53
2017-12-26T08:27:23.439Z,7.49
2017-12-26T08:28:32.263Z,7.5
2017-12-26T08:29:41.092Z,7.55
2017-12-26T08:30:49.920Z,7.5
2017-12-26T08:31:58.747Z,7.5
2017-12-26T08:33:07.573Z,7.48
2017-12-26T08:34:16.450Z,7.42
2017-12-26T08:35:25.278Z,7.39
2017-12-26T08:36:34.651Z,7.45
2017-12-26T08:37:43.476Z,7.4
2017-12-26T08:38:52.583Z,7.42
2017-12-26T08:40:01.408Z,7.43
2017-12-26T08:41:10.240Z,7.43
2017-12-26T08:42:19.621Z,7.35
2017-12-26T08:43:28.447Z,7.32
2017-12-26T08:44:37.273Z,7.27
2017-12-26T08:45:46.102Z,7.3
2017-12-26T08:46:54.930Z,7.25
2017-12-26T08:48:03.757Z,7.32
2017-12-26T08:49:12.588Z,7.21
2017-12-26T08:50:21.415Z,7.17
2017-12-26T08:51:30.250Z,7.28
2017-12-26T08:52:39.348Z,7.28
2017-12-26T08:53:48.176Z,7.2
2017-12-26T08:54:57.281Z,7.15
2017-12-26T08:56:06.105Z,7.21
2017-12-26T08:57:14.933Z,7.24
2017-12-26T08:58:23.762Z,7.16
2017-12-26T08:59:32.863Z,7.16
2017-12-26T09:00:41.688Z,7.13
2017-12-26T09:01:50.521Z,7.2
2017-12-26T09:02:59.346Z,7.21
2017-12-26T09:04:08.174Z,7.15
2017-12-26T09:05:17.001Z,7.31
2017-12-26T09:06:26.104Z,7.31
2017-12-26T09:07:34.931Z,7.25
2017-12-26T09:08:43.808Z,7.24
2017-12-26T09:09:52.634Z,7.16
2017-12-26T09:11:01.463Z,7.21
2017-12-26T09:12:10.291Z,7.13
2017-12-26T09:13:19.120Z,7.13
2017-12-26T09:14:28.067Z,7.17
2017-12-26T09:15:37.150Z,7.13
2017-12-26T09:16:46.248Z,7.12
2017-12-26T09:17:55.103Z,7.07
2017-12-26T09:19:03.908Z,7.07
2017-12-26T09:20:12.764Z,7.05
2017-12-26T09:21:21.561Z,7.05
2017-12-26T09:22:30.389Z,7.03
2017-12-26T09:23:39.214Z,7.07
2017-12-26T09:24:48.041Z,7.02
2017-12-26T09:25:56.918Z,7.02
2017-12-26T09:27:05.743Z,7.02
2017-12-26T09:28:14.620Z,7.02
2017-12-26T09:29:23.447Z,7.03
2017-12-26T09:30:32.548Z,7.03
2017-12-26T09:31:41.652Z,6.98
2017-12-26T09:32:50.480Z,6.99
2017-12-26T09:33:59.305Z,6.91
2017-12-26T09:35:08.134Z,6.95
2017-12-26T09:36:16.961Z,6.88
2017-12-26T09:37:26.067Z,6.88
2017-12-26T09:38:34.892Z,6.79
2017-12-26T09:39:43.718Z,6.89
2017-12-26T09:40:52.546Z,6.92
2017-12-26T09:42:01.373Z,6.85
2017-12-26T09:43:10.202Z,6.81
2017-12-26T09:44:19.031Z,6.92
2017-12-26T09:45:27.858Z,6.92
2017-12-26T09:46:36.684Z,6.87
2017-12-26T09:47:45.509Z,6.94
2017-12-26T09:48:54.342Z,6.89
2017-12-26T09:50:03.446Z,6.89
2017-12-26T09:51:12.550Z,6.97
2017-12-26T09:52:21.377Z,6.89
2017-12-26T09:53:30.205Z,6.97
2017-12-26T09:54:39.579Z,6.97
2017-12-26T09:55:48.681Z,6.91
2017-12-26T09:56:57.509Z,6.88
2017-12-26T09:58:06.609Z,6.92
2017-12-26T09:59:15.445Z,6.94
2017-12-26T10:00:24.272Z,6.88
2017-12-26T10:01:33.099Z,6.97
2017-12-26T10:02:42.195Z,6.97
2017-12-26T10:03:51.025Z,6.95
2017-12-26T10:04:59.853Z,6.95
2017-12-26T10:06:08.830Z,6.97
2017-12-26T10:07:17.656Z,6.99
2017-12-26T10:08:26.483Z,7.03
2017-12-26T10:09:35.309Z,6.99
2017-12-26T10:10:44.141Z,6.99
2017-12-26T10:11:52.962Z,6.98
2017-12-26T10:13:01.788Z,6.97
2017-12-26T10:14:10.616Z,7.05
2017-12-26T10:15:19.445Z,7.06
2017-12-26T10:16:28.271Z,7.06
2017-12-26T10:17:37.199Z,7.05
2017-12-26T10:18:46.028Z,6.99
2017-12-26T10:19:54.853Z,7.06
2017-12-26T10:21:03.685Z,7.06
2017-12-26T10:22:12.515Z,7.06
2017-12-26T10:23:21.342Z,7.05
2017-12-26T10:24:30.166Z,7.07
2017-12-26T10:25:38.996Z,7.03
2017-12-26T10:26:48.109Z,7.1
2017-12-26T10:27:56.949Z,7.12
2017-12-26T10:29:05.791Z,7.15
2017-12-26T10:30:14.630Z,7.13
2017-12-26T10:31:23.470Z,7.12
2017-12-26T10:32:32.310Z,7.25
2017-12-26T10:33:41.441Z,7.21
2017-12-26T10:34:50.283Z,7.21
2017-12-26T10:35:59.126Z,7.21
2017-12-26T10:37:08.248Z,7.2
2017-12-26T10:38:17.089Z,7.15
2017-12-26T10:39:25.932Z,7.24
2017-12-26T10:40:35.098Z,7.25
2017-12-26T10:41:43.939Z,7.24
2017-12-26T10:42:52.781Z,7.16
2017-12-26T10:44:01.623Z,7.15
2017-12-26T10:45:10.748Z,7.16
2017-12-26T10:46:20.024Z,7.23
2017-12-26T10:47:28.863Z,7.2
2017-12-26T10:48:37.704Z,7.21
2017-12-26T10:49:46.546Z,7.28
2017-12-26T10:50:55.393Z,7.23
2017-12-26T10:52:04.237Z,7.27
2017-12-26T10:53:13.077Z,7.21
2017-12-26T10:54:21.918Z,7.32
2017-12-26T10:55:30.760Z,7.17
2017-12-26T10:56:39.598Z,7.17
2017-12-26T10:57:48.443Z,7.16
2017-12-26T10:58:57.558Z,7.17
2017-12-26T11:00:06.953Z,7.24
2017-12-26T11:01:15.800Z,7.16
2017-12-26T11:02:24.634Z,7.21
2017-12-26T11:03:33.755Z,7.21
2017-12-26T11:04:42.595Z,7.2
2017-12-26T11:05:51.436Z,7.12
2017-12-26T11:07:00.275Z,7.17
2017-12-26T11:08:09.116Z,7.17
2017-12-26T11:09:18.059Z,7.28
2017-12-26T11:10:26.900Z,7.16
2017-12-26T11:11:35.741Z,7.15
2017-12-26T11:12:44.582Z,7.27
2017-12-26T11:13:53.425Z,7.15
2017-12-26T11:15:02.361Z,7.13
2017-12-26T11:16:11.482Z,7.16
2017-12-26T11:17:20.603Z,7.23
2017-12-26T11:18:29.442Z,7.21
2017-12-26T11:19:38.283Z,7.16
2017-12-26T11:20:47.223Z,7.09
2017-12-26T11:21:56.362Z,7.13
2017-12-26T11:23:05.480Z,7.16
2017-12-26T11:24:14.316Z,7.09
2017-12-26T11:25:23.436Z,7.1
2017-12-26T11:26:32.328Z,7.1
2017-12-26T11:27:41.167Z,7.13
2017-12-26T11:28:50.008Z,7.1
2017-12-26T11:29:58.845Z,7.17
2017-12-26T11:31:07.691Z,7.17
2017-12-26T11:32:16.982Z,7.2
2017-12-26T11:33:25.822Z,7.23
2017-12-26T11:34:34.667Z,7.21
2017-12-26T11:35:43.503Z,7.2
2017-12-26T11:36:52.640Z,7.2
2017-12-26T11:38:01.529Z,7.17
2017-12-26T11:39:10.651Z,7.27
2017-12-26T11:40:19.491Z,7.31
2017-12-26T11:41:28.332Z,7.27
2017-12-26T11:42:37.172Z,7.32
2017-12-26T11:43:46.441Z,7.21
2017-12-26T11:44:55.558Z,7.2
2017-12-26T11:46:04.671Z,7.17
2017-12-26T11:47:13.802Z,7.31
2017-12-26T11:48:22.635Z,7.28
2017-12-26T11:49:32.135Z,7.31
2017-12-26T11:50:40.978Z,7.3
2017-12-26T11:51:49.820Z,7.3
2017-12-26T11:52:58.937Z,7.3
2017-12-26T11:54:07.780Z,7.23
2017-12-26T11:55:16.623Z,7.3
2017-12-26T11:56:25.737Z,7.25
2017-12-26T11:57:34.580Z,7.21
2017-12-26T11:58:43.427Z,7.24
2017-12-26T11:59:52.269Z,7.15
2017-12-26T12:01:01.111Z,7.12
2017-12-26T12:02:09.952Z,7.12
2017-12-26T12:03:18.793Z,7.21
2017-12-26T12:04:27.635Z,7.09
2017-12-26T12:05:36.754Z,7.25
2017-12-26T12:06:45.645Z,7.13
2017-12-26T12:07:54.488Z,7.16
2017-12-26T12:09:03.328Z,7.21
2017-12-26T12:10:12.171Z,7.2
2017-12-26T12:11:21.012Z,7.13
2017-12-26T12:12:29.957Z,7.16
2017-12-26T12:13:38.795Z,7.16
2017-12-26T12:14:47.634Z,7.21
2017-12-26T12:15:57.042Z,7.17
2017-12-26T12:17:05.881Z,7.31
2017-12-26T12:18:15.021Z,7.31
2017-12-26T12:19:23.864Z,7.28
2017-12-26T12:20:32.709Z,7.28
2017-12-26T12:21:41.550Z,7.35
2017-12-26T12:22:50.391Z,7.31
2017-12-26T12:23:59.333Z,7.39
2017-12-26T12:25:08.173Z,7.5
2017-12-26T12:26:17.290Z,7.42
2017-12-26T12:27:26.413Z,7.48
2017-12-26T12:28:35.254Z,7.3
2017-12-26T12:29:44.094Z,7.45
2017-12-26T12:30:52.936Z,7.45
2017-12-26T12:32:01.781Z,7.31
2017-12-26T12:33:10.618Z,7.31
2017-12-26T12:34:19.461Z,7.37
2017-12-26T12:35:28.450Z,7.25
2017-12-26T12:36:37.294Z,7.34
2017-12-26T12:37:46.140Z,7.3
2017-12-26T12:38:55.256Z,7.31
2017-12-26T12:40:04.101Z,7.35
2017-12-26T12:41:12.942Z,7.37
2017-12-26T12:42:21.783Z,7.3
2017-12-26T12:43:30.624Z,7.28
2017-12-26T12:44:39.471Z,7.35
2017-12-26T12:45:48.308Z,7.35
2017-12-26T12:46:57.201Z,7.31
2017-12-26T12:48:06.043Z,7.31
2017-12-26T12:49:14.885Z,7.31
2017-12-26T12:50:24.004Z,7.27
2017-12-26T12:51:32.851Z,7.2
2017-12-26T12:52:41.839Z,7.21
2017-12-26T12:53:50.681Z,7.3
2017-12-26T12:54:59.521Z,7.27
2017-12-26T12:56:08.364Z,7.43
2017-12-26T12:57:17.271Z,7.31
2017-12-26T12:58:26.149Z,7.48
2017-12-26T12:59:34.990Z,7.42
2017-12-26T13:00:43.834Z,7.43
2017-12-26T13:01:52.678Z,7.4
2017-12-26T13:03:01.519Z,7.43
2017-12-26T13:04:10.362Z,7.43
2017-12-26T13:05:19.206Z,7.43
2017-12-26T13:06:28.047Z,7.5
2017-12-26T13:07:36.890Z,7.45
2017-12-26T13:08:45.732Z,7.46
2017-12-26T13:09:54.876Z,7.43
2017-12-26T13:11:03.718Z,7.52
2017-12-26T13:12:12.562Z,7.42
2017-12-26T13:13:21.409Z,7.4
2017-12-26T13:14:30.526Z,7.45
2017-12-26T13:15:39.520Z,7.43
2017-12-26T13:16:48.361Z,7.4
2017-12-26T13:17:57.205Z,7.31
2017-12-26T13:19:06.045Z,7.43
2017-12-26T13:20:14.896Z,7.5
2017-12-26T13:21:24.114Z,7.42
2017-12-26T13:22:32.954Z,7.5
2017-12-26T13:23:41.799Z,7.46
2017-12-26T13:24:50.639Z,7.42
2017-12-26T13:25:59.479Z,7.46
2017-12-26T13:27:08.321Z,7.46
2017-12-26T13:28:17.441Z,7.5
2017-12-26T13:29:26.280Z,7.46
2017-12-26T13:30:35.122Z,7.57
2017-12-26T13:31:43.962Z,7.52
2017-12-26T13:32:52.955Z,7.45
2017-12-26T13:34:01.796Z,7.53
2017-12-26T13:35:10.633Z,7.48
2017-12-26T13:36:19.461Z,7.53
2017-12-26T13:37:28.289Z,7.6
2017-12-26T13:38:37.118Z,7.58
2017-12-26T13:39:45.949Z,7.57
2017-12-26T13:40:54.770Z,7.58
2017-12-26T13:42:03.598Z,7.6
2017-12-26T13:43:12.425Z,7.57
2017-12-26T13:44:21.411Z,7.63
2017-12-26T13:45:30.511Z,7.68
2017-12-26T13:46:39.342Z,7.64
2017-12-26T13:47:48.172Z,7.55
2017-12-26T13:48:56.998Z,7.58
2017-12-26T13:50:05.929Z,7.63
2017-12-26T13:51:14.758Z,7.58
2017-12-26T13:52:23.584Z,7.68
2017-12-26T13:53:32.415Z,7.68
2017-12-26T13:54:41.247Z,7.67
2017-12-26T13:55:50.275Z,7.6
2017-12-26T13:56:59.105Z,7.5
2017-12-26T13:58:07.934Z,7.49
2017-12-26T13:59:17.040Z,7.5
2017-12-26T14:00:26.147Z,7.43
2017-12-26T14:01:35.076Z,7.45
2017-12-26T14:02:43.905Z,7.32
2017-12-26T14:03:52.734Z,7.31
2017-12-26T14:05:01.613Z,7.3
2017-12-26T14:06:10.440Z,7.3
2017-12-26T14:07:19.369Z,7.31
2017-12-26T14:08:28.200Z,7.24
2017-12-26T14:09:37.304Z,7.21
2017-12-26T14:10:46.133Z,7.32
2017-12-26T14:11:54.960Z,7.28
2017-12-26T14:13:03.941Z,7.32
2017-12-26T14:14:12.770Z,7.3
2017-12-26T14:15:21.603Z,7.3
2017-12-26T14:16:30.448Z,7.16
2017-12-26T14:17:39.296Z,7.16
2017-12-26T14:18:48.184Z,7.25
2017-12-26T14:19:57.022Z,7.27
2017-12-26T14:21:05.861Z,7.24
2017-12-26T14:22:15.239Z,7.09
2017-12-26T14:23:24.068Z,6.98
2017-12-26T14:24:33.047Z,7.05
2017-12-26T14:25:41.880Z,6.88
2017-12-26T14:26:50.707Z,6.89
2017-12-26T14:27:59.533Z,6.84
2017-12-26T14:29:08.362Z,6.84
2017-12-26T14:30:17.341Z,6.85
2017-12-26T14:31:26.171Z,6.81
2017-12-26T14:32:35.001Z,6.95
2017-12-26T14:33:43.833Z,6.87
2017-12-26T14:34:52.934Z,6.74
2017-12-26T14:36:01.764Z,6.7
2017-12-26T14:37:10.592Z,6.74
2017-12-26T14:38:19.422Z,6.67
2017-12-26T14:39:28.248Z,6.62
2017-12-26T14:40:37.076Z,6.73
2017-12-26T14:41:45.954Z,6.64
2017-12-26T14:42:54.784Z,6.73
2017-12-26T14:44:03.613Z,6.62
2017-12-26T14:45:12.443Z,6.71
2017-12-26T14:46:21.277Z,6.64
2017-12-26T14:47:30.385Z,6.69
2017-12-26T14:48:39.212Z,6.69
2017-12-26T14:49:48.039Z,6.7
2017-12-26T14:50:57.143Z,6.66
2017-12-26T14:52:06.249Z,6.69
2017-12-26T14:53:15.427Z,6.64
2017-12-26T14:54:24.256Z,6.62
2017-12-26T14:55:33.081Z,6.59
2017-12-26T14:56:42.189Z,6.62
2017-12-26T14:57:51.017Z,6.56
2017-12-26T14:58:59.852Z,6.49
2017-12-26T15:00:08.689Z,6.55
2017-12-26T15:01:17.515Z,6.51
2017-12-26T15:02:26.651Z,6.58
2017-12-26T15:03:35.497Z,6.52
2017-12-26T15:04:44.336Z,6.55
2017-12-26T15:05:53.295Z,6.54
2017-12-26T15:07:02.132Z,6.51
2017-12-26T15:08:10.974Z,6.56
2017-12-26T15:09:19.811Z,6.54
2017-12-26T15:10:28.675Z,6.48
2017-12-26T15:11:37.603Z,6.43
2017-12-26T15:12:46.496Z,6.54
2017-12-26T15:13:55.433Z,6.54
2017-12-26T15:15:04.321Z,6.38
2017-12-26T15:16:13.255Z,6.38
2017-12-26T15:17:22.347Z,6.38
2017-12-26T15:18:31.300Z,6.43
2017-12-26T15:19:40.589Z,6.43